createdAt,value
2018-12-10T00:00:05.838Z,100358.32
2018-12-10T00:02:33.301Z,100360.55
2018-12-10T00:05:00.796Z,100362.70
2018-12-10T00:07:28.378Z,100358.05
2018-12-10T00:09:55.840Z,100364.88
2018-12-10T00:12:23.298Z,100366.73
2018-12-10T00:14:50.771Z,100368.55
2018-12-10T00:17:18.254Z,100365.94
2018-12-10T00:19:45.712Z,100361.02
2018-12-10T00:22:13.163Z,100357.44
2018-12-10T00:24:40.625Z,100348.63
2018-12-10T00:27:08.084Z,100376.77
2018-12-10T00:29:35.527Z,100392.09
2018-12-10T00:32:02.964Z,100391.25
2018-12-10T00:34:30.648Z,100394.45
2018-12-10T00:36:58.154Z,100407.42
2018-12-10T00:39:25.607Z,100404.34
2018-12-10T00:41:53.065Z,100403.00
2018-12-10T00:44:20.532Z,100406.16
2018-12-10T00:46:47.976Z,100405.27
2018-12-10T00:49:15.531Z,100407.97
2018-12-10T00:51:42.987Z,100414.24
2018-12-10T00:54:10.450Z,100417.81
2018-12-10T00:56:37.910Z,100413.02
2018-12-10T00:59:05.359Z,100430.33
2018-12-10T01:01:32.894Z,100430.74
2018-12-10T01:04:00.432Z,100436.59
2018-12-10T01:06:27.908Z,100451.42
2018-12-10T01:08:55.371Z,100454.53
2018-12-10T01:11:22.818Z,100453.56
2018-12-10T01:13:50.279Z,100456.67
2018-12-10T01:16:17.760Z,100456.13
2018-12-10T01:18:45.201Z,100453.80
2018-12-10T01:21:12.693Z,100456.83
2018-12-10T01:23:40.130Z,100467.28
2018-12-10T01:26:07.700Z,100470.44
2018-12-10T01:28:35.213Z,100470.02
2018-12-10T01:31:02.689Z,100478.57
2018-12-10T01:33:30.209Z,100469.14
2018-12-10T01:35:57.760Z,100489.30
2018-12-10T01:38:25.220Z,100491.16
2018-12-10T01:40:52.691Z,100494.28
2018-12-10T01:43:20.168Z,100490.56
2018-12-10T01:45:47.624Z,100507.96
2018-12-10T01:48:15.095Z,100515.24
2018-12-10T01:50:42.531Z,100512.93
2018-12-10T01:53:11.028Z,100506.87
2018-12-10T01:55:38.490Z,100508.34
2018-12-10T01:58:05.949Z,100514.70
2018-12-10T02:00:33.397Z,100518.61
2018-12-10T02:03:00.833Z,100516.84
2018-12-10T02:05:28.320Z,100520.08
2018-12-10T02:07:55.772Z,100531.79
2018-12-10T02:10:23.302Z,100530.98
2018-12-10T02:12:50.762Z,100540.88
2018-12-10T02:15:18.207Z,100542.70
2018-12-10T02:17:45.673Z,100546.81
2018-12-10T02:20:13.148Z,100546.81
2018-12-10T02:22:40.596Z,100549.98
2018-12-10T02:25:08.073Z,100551.78
2018-12-10T02:27:35.510Z,100553.05
2018-12-10T02:30:03.085Z,100559.80
2018-12-10T02:32:30.615Z,100558.86
2018-12-10T02:34:58.072Z,100538.99
2018-12-10T02:37:25.562Z,100548.38
2018-12-10T02:39:52.990Z,100557.27
2018-12-10T02:42:20.460Z,100559.88
2018-12-10T02:44:47.908Z,100563.41
2018-12-10T02:47:15.339Z,100569.27
2018-12-10T02:49:42.780Z,100571.50
2018-12-10T02:52:10.256Z,100571.55
2018-12-10T02:54:37.723Z,100572.97
2018-12-10T02:57:05.174Z,100575.71
2018-12-10T02:59:32.639Z,100577.35
2018-12-10T03:02:00.113Z,100586.37
2018-12-10T03:04:27.560Z,100595.88
2018-12-10T03:06:55.050Z,100598.58
2018-12-10T03:09:22.519Z,100595.92
2018-12-10T03:11:49.993Z,100592.84
2018-12-10T03:14:17.443Z,100601.31
2018-12-10T03:16:44.875Z,100589.73
2018-12-10T03:19:12.335Z,100588.38
2018-12-10T03:21:39.789Z,100591.08
2018-12-10T03:24:07.248Z,100593.69
2018-12-10T03:26:34.699Z,100594.11
2018-12-10T03:29:02.176Z,100605.43
2018-12-10T03:31:29.648Z,100603.20
2018-12-10T03:33:57.211Z,100608.17
2018-12-10T03:36:24.804Z,100621.26
2018-12-10T03:38:52.274Z,100622.53
2018-12-10T03:41:19.882Z,100636.00
2018-12-10T03:43:47.375Z,100628.00
2018-12-10T03:46:14.845Z,100628.38
2018-12-10T03:48:42.327Z,100620.80
2018-12-10T03:51:09.763Z,100631.95
2018-12-10T03:53:37.219Z,100639.04
2018-12-10T03:56:04.682Z,100636.30
2018-12-10T03:58:32.134Z,100634.88
2018-12-10T04:00:59.581Z,100630.79
2018-12-10T04:03:27.035Z,100634.37
2018-12-10T04:05:54.503Z,100641.49
2018-12-10T04:08:22.061Z,100648.23
2018-12-10T04:10:49.519Z,100645.53
2018-12-10T04:13:16.970Z,100650.54
2018-12-10T04:15:44.431Z,100646.08
2018-12-10T04:18:11.888Z,100652.34
2018-12-10T04:20:39.368Z,100659.09
2018-12-10T04:23:06.901Z,100644.77
2018-12-10T04:25:34.353Z,100645.66
2018-12-10T04:28:01.911Z,100645.27
2018-12-10T04:30:29.366Z,100657.78
2018-12-10T04:32:56.852Z,100656.44
2018-12-10T04:35:24.290Z,100655.16
2018-12-10T04:37:51.749Z,100668.17
2018-12-10T04:40:19.202Z,100670.45
2018-12-10T04:42:46.631Z,100676.77
2018-12-10T04:45:14.093Z,100670.98
2018-12-10T04:47:41.670Z,100669.69
2018-12-10T04:50:09.171Z,100680.54
2018-12-10T04:52:36.610Z,100676.88
2018-12-10T04:55:04.235Z,100680.12
2018-12-10T04:57:31.709Z,100685.51
2018-12-10T04:59:59.171Z,100685.97
2018-12-10T05:02:26.628Z,100692.24
2018-12-10T05:04:54.138Z,100687.44
2018-12-10T05:07:21.727Z,100696.29
2018-12-10T05:09:49.186Z,100694.52
2018-12-10T05:12:16.735Z,100699.09
2018-12-10T05:14:44.211Z,100705.91
2018-12-10T05:17:11.683Z,100729.20
2018-12-10T05:19:39.132Z,100745.33
2018-12-10T05:22:06.575Z,100755.15
2018-12-10T05:24:34.024Z,100731.31
2018-12-10T05:27:01.712Z,100724.35
2018-12-10T05:29:29.193Z,100725.54
2018-12-10T05:31:56.656Z,100740.48
2018-12-10T05:34:24.102Z,100738.54
2018-12-10T05:36:51.642Z,100739.66
2018-12-10T05:39:19.200Z,100736.28
2018-12-10T05:41:46.716Z,100744.91
2018-12-10T05:44:14.168Z,100741.41
2018-12-10T05:46:41.619Z,100752.33
2018-12-10T05:49:09.141Z,100741.43
2018-12-10T05:51:36.591Z,100741.09
2018-12-10T05:54:04.140Z,100742.80
2018-12-10T05:56:31.644Z,100747.72
2018-12-10T05:58:59.119Z,100751.81
2018-12-10T06:01:26.566Z,100754.20
2018-12-10T06:03:54.139Z,100751.66
2018-12-10T06:06:21.603Z,100751.69
2018-12-10T06:08:49.161Z,100747.28
2018-12-10T06:11:16.601Z,100748.04
2018-12-10T06:13:44.066Z,100752.61
2018-12-10T06:16:11.656Z,100759.55
2018-12-10T06:18:39.214Z,100759.78
2018-12-10T06:21:06.782Z,100769.13
2018-12-10T06:23:34.288Z,100768.66
2018-12-10T06:26:01.749Z,100772.30
2018-12-10T06:28:29.237Z,100774.55
2018-12-10T06:30:56.769Z,100775.16
2018-12-10T06:33:24.335Z,100779.34
2018-12-10T06:35:51.793Z,100779.56
2018-12-10T06:38:19.354Z,100778.22
2018-12-10T06:40:46.865Z,100768.23
2018-12-10T06:43:14.346Z,100776.13
2018-12-10T06:45:41.819Z,100782.75
2018-12-10T06:48:09.284Z,100781.30
2018-12-10T06:50:36.721Z,100787.50
2018-12-10T06:53:04.164Z,100784.88
2018-12-10T06:55:31.620Z,100789.16
2018-12-10T06:57:59.070Z,100793.34
2018-12-10T07:00:26.583Z,100801.42
2018-12-10T07:02:54.056Z,100795.79
2018-12-10T07:05:21.492Z,100809.32
2018-12-10T07:07:49.359Z,100808.89
2018-12-10T07:10:16.803Z,100813.85
2018-12-10T07:12:44.321Z,100825.51
2018-12-10T07:15:11.794Z,100830.08
2018-12-10T07:17:39.231Z,100822.45
2018-12-10T07:20:06.960Z,100823.02
2018-12-10T07:22:34.508Z,100826.25
2018-12-10T07:25:01.952Z,100830.73
2018-12-10T07:27:29.431Z,100820.04
2018-12-10T07:29:56.979Z,100822.30
2018-12-10T07:32:24.414Z,100825.62
2018-12-10T07:34:51.866Z,100833.80
2018-12-10T07:37:19.344Z,100843.69
2018-12-10T07:39:46.817Z,100840.53
2018-12-10T07:42:14.362Z,100847.27
2018-12-10T07:44:41.836Z,100852.19
2018-12-10T07:47:09.272Z,100854.95
2018-12-10T07:49:36.835Z,100858.13
2018-12-10T07:52:04.308Z,100871.65
2018-12-10T07:54:31.749Z,100864.03
2018-12-10T07:56:59.194Z,100866.72
2018-12-10T07:59:26.657Z,100862.62
2018-12-10T08:01:54.092Z,100864.50
2018-12-10T08:04:26.231Z,100867.19
2018-12-10T08:06:53.699Z,100869.94
2018-12-10T08:09:21.156Z,100867.28
2018-12-10T08:11:48.594Z,100878.05
2018-12-10T08:14:16.052Z,100879.00
2018-12-10T08:16:43.840Z,100883.95
2018-12-10T08:19:11.400Z,100868.83
2018-12-10T08:21:38.929Z,100886.22
2018-12-10T08:24:06.368Z,100892.48
2018-12-10T08:26:33.814Z,100898.78
2018-12-10T08:29:07.442Z,100898.85
2018-12-10T08:31:30.708Z,100901.54
2018-12-10T08:33:58.217Z,100907.81
2018-12-10T08:36:25.697Z,100925.70
2018-12-10T08:38:53.171Z,100908.70
2018-12-10T08:41:20.606Z,100908.20
2018-12-10T08:43:48.168Z,100915.42
2018-12-10T08:46:15.610Z,100908.33
2018-12-10T08:48:43.077Z,100913.72
2018-12-10T08:51:10.570Z,100915.52
2018-12-10T08:53:38.075Z,100911.94
2018-12-10T08:56:05.511Z,100915.98
2018-12-10T08:58:33.000Z,100912.40
2018-12-10T09:01:00.439Z,100913.72
2018-12-10T09:03:27.928Z,100918.14
2018-12-10T09:05:55.419Z,100928.87
2018-12-10T09:08:22.911Z,100929.73
2018-12-10T09:10:50.340Z,100930.62
2018-12-10T09:13:17.771Z,100929.73
2018-12-10T09:15:45.223Z,100934.72
2018-12-10T09:18:12.686Z,100928.02
2018-12-10T09:20:40.132Z,100932.03
2018-12-10T09:23:07.565Z,100936.42
2018-12-10T09:25:35.127Z,100936.06
2018-12-10T09:28:02.589Z,100933.31
2018-12-10T09:30:30.042Z,100938.23
2018-12-10T09:32:57.504Z,100945.78
2018-12-10T09:35:24.952Z,100946.30
2018-12-10T09:37:52.410Z,100937.80
2018-12-10T09:40:19.861Z,100940.10
2018-12-10T09:42:47.287Z,100942.73
2018-12-10T09:45:14.886Z,100944.53
2018-12-10T09:47:42.391Z,100943.61
2018-12-10T09:50:09.824Z,100945.39
2018-12-10T09:52:37.376Z,100946.30
2018-12-10T09:55:04.831Z,100947.19
2018-12-10T09:57:32.712Z,100948.54
2018-12-10T10:00:00.382Z,100946.30
2018-12-10T10:02:27.858Z,100952.14
2018-12-10T10:04:55.345Z,100951.16
2018-12-10T10:07:28.411Z,100952.61
2018-12-10T10:09:52.328Z,100954.80
2018-12-10T10:12:19.808Z,100953.00
2018-12-10T10:14:47.320Z,100948.08
2018-12-10T10:17:14.759Z,100952.51
2018-12-10T10:19:42.209Z,100957.44
2018-12-10T10:22:09.636Z,100958.39
2018-12-10T10:24:37.077Z,100961.93
2018-12-10T10:27:04.559Z,100967.80
2018-12-10T10:29:31.983Z,100963.77
2018-12-10T10:31:59.486Z,100962.81
2018-12-10T10:34:26.932Z,100956.09
2018-12-10T10:36:54.386Z,100952.51
2018-12-10T10:39:21.864Z,100961.02
2018-12-10T10:41:49.296Z,100964.16
2018-12-10T10:44:16.733Z,100965.94
2018-12-10T10:46:44.183Z,100967.28
2018-12-10T10:49:11.615Z,100964.13
2018-12-10T10:51:39.048Z,100956.91
2018-12-10T10:54:06.588Z,100954.12
2018-12-10T10:56:34.042Z,100955.47
2018-12-10T10:59:01.476Z,100943.79
2018-12-10T11:01:34.539Z,100940.64
2018-12-10T11:04:02.092Z,100950.06
2018-12-10T11:06:29.616Z,100937.42
2018-12-10T11:08:57.068Z,100945.92
2018-12-10T11:11:24.490Z,100936.05
2018-12-10T11:13:51.932Z,100936.41
2018-12-10T11:16:19.465Z,100930.96
2018-12-10T11:18:46.884Z,100933.13
2018-12-10T11:21:14.351Z,100932.58
2018-12-10T11:23:41.805Z,100936.16
2018-12-10T11:26:09.247Z,100940.09
2018-12-10T11:28:36.762Z,100931.95
2018-12-10T11:31:04.207Z,100942.69
2018-12-10T11:33:31.623Z,100924.66
2018-12-10T11:35:59.177Z,100938.09
2018-12-10T11:38:26.599Z,100940.69
2018-12-10T11:40:54.012Z,100931.66
2018-12-10T11:43:21.445Z,100930.31
2018-12-10T11:45:48.901Z,100923.05
2018-12-10T11:48:16.371Z,100922.56
2018-12-10T11:50:43.839Z,100924.72
2018-12-10T11:53:11.283Z,100918.42
2018-12-10T11:55:38.725Z,100906.23
2018-12-10T11:58:06.165Z,100910.63
2018-12-10T12:00:33.604Z,100899.83
2018-12-10T12:03:01.079Z,100907.41
2018-12-10T12:05:28.585Z,100907.38
2018-12-10T12:07:56.016Z,100900.19
2018-12-10T12:10:23.581Z,100900.81
2018-12-10T12:12:51.077Z,100907.38
2018-12-10T12:15:18.498Z,100914.53
2018-12-10T12:17:45.972Z,100914.04
2018-12-10T12:20:13.428Z,100911.34
2018-12-10T12:22:40.871Z,100905.05
2018-12-10T12:25:08.460Z,100902.31
2018-12-10T12:27:35.894Z,100891.55
2018-12-10T12:30:03.383Z,100892.89
2018-12-10T12:32:30.827Z,100890.66
2018-12-10T12:34:58.428Z,100901.42
2018-12-10T12:37:25.996Z,100904.58
2018-12-10T12:39:53.547Z,100919.86
2018-12-10T12:42:20.982Z,100927.05
2018-12-10T12:44:48.420Z,100945.52
2018-12-10T12:47:15.862Z,100885.05
2018-12-10T12:49:43.319Z,100913.42
2018-12-10T12:52:10.967Z,100916.12
2018-12-10T12:54:38.410Z,100906.80
2018-12-10T12:57:05.906Z,100900.13
2018-12-10T12:59:33.340Z,100902.36
2018-12-10T13:02:00.798Z,100899.67
2018-12-10T13:04:32.915Z,100901.37
2018-12-10T13:07:00.491Z,100892.94
2018-12-10T13:09:28.106Z,100893.83
2018-12-10T13:11:55.611Z,100903.12
2018-12-10T13:14:23.061Z,100900.81
2018-12-10T13:16:50.527Z,100902.55
2018-12-10T13:19:17.984Z,100894.54
2018-12-10T13:21:45.426Z,100891.84
2018-12-10T13:24:12.896Z,100898.13
2018-12-10T13:26:40.344Z,100887.34
2018-12-10T13:29:07.887Z,100888.73
2018-12-10T13:31:36.252Z,100898.62
2018-12-10T13:34:03.682Z,100898.16
2018-12-10T13:36:31.113Z,100910.73
2018-12-10T13:38:58.555Z,100917.92
2018-12-10T13:41:26.068Z,100909.84
2018-12-10T13:43:53.593Z,100908.11
2018-12-10T13:46:21.024Z,100914.38
2018-12-10T13:48:48.501Z,100907.65
2018-12-10T13:51:15.947Z,100903.64
2018-12-10T13:53:43.371Z,100888.37
2018-12-10T13:56:10.863Z,100880.36
2018-12-10T13:58:38.418Z,100893.33
2018-12-10T14:01:05.847Z,100888.91
2018-12-10T14:03:33.275Z,100900.95
2018-12-10T14:06:00.783Z,100899.21
2018-12-10T14:08:28.229Z,100895.20
2018-12-10T14:10:55.760Z,100910.84
2018-12-10T14:13:23.279Z,100903.70
2018-12-10T14:15:50.809Z,100897.44
2018-12-10T14:18:18.346Z,100902.36
2018-12-10T14:20:45.870Z,100908.67
2018-12-10T14:23:13.336Z,100905.05
2018-12-10T14:25:40.837Z,100911.36
2018-12-10T14:28:08.275Z,100917.63
2018-12-10T14:30:35.736Z,100927.48
2018-12-10T14:33:03.180Z,100923.45
2018-12-10T14:35:31.023Z,100923.91
2018-12-10T14:37:58.540Z,100927.52
2018-12-10T14:40:25.985Z,100927.06
2018-12-10T14:42:54.402Z,100933.36
2018-12-10T14:45:21.859Z,100929.33
2018-12-10T14:47:52.009Z,100944.13
2018-12-10T14:50:19.574Z,100949.52
2018-12-10T14:52:47.019Z,100958.55
2018-12-10T14:55:14.495Z,100944.66
2018-12-10T14:57:42.049Z,100910.48
2018-12-10T15:00:10.231Z,100934.34
2018-12-10T15:02:37.680Z,100937.92
2018-12-10T15:05:05.401Z,100931.66
2018-12-10T15:07:32.948Z,100929.92
2018-12-10T15:10:00.378Z,100926.27
2018-12-10T15:12:27.937Z,100928.96
2018-12-10T15:14:55.519Z,100924.47
2018-12-10T15:17:22.951Z,100923.58
2018-12-10T15:19:50.387Z,100930.27
2018-12-10T15:22:17.807Z,100923.48
2018-12-10T15:24:46.357Z,100909.13
2018-12-10T15:27:13.808Z,100919.44
2018-12-10T15:29:42.300Z,100918.98
2018-12-10T15:32:09.785Z,100918.98
2018-12-10T15:34:37.217Z,100916.28
2018-12-10T15:37:04.647Z,100914.94
2018-12-10T15:39:32.102Z,100917.17
2018-12-10T15:41:59.638Z,100915.86
2018-12-10T15:44:27.092Z,100920.36
2018-12-10T15:46:54.540Z,100921.70
2018-12-10T15:49:22.102Z,100917.66
2018-12-10T15:51:49.648Z,100922.59
2018-12-10T15:54:17.099Z,100919.97
2018-12-10T15:56:44.607Z,100916.39
2018-12-10T16:00:17.695Z,100924.47
2018-12-10T16:02:45.164Z,100922.23
2018-12-10T16:05:13.723Z,100920.89
2018-12-10T16:07:41.212Z,100921.34
2018-12-10T16:10:09.048Z,100923.19
2018-12-10T16:12:36.533Z,100916.48
2018-12-10T16:15:04.135Z,100908.41
2018-12-10T16:17:32.992Z,100915.20
2018-12-10T16:20:00.549Z,100924.63
2018-12-10T16:22:28.085Z,100916.13
2018-12-10T16:24:55.567Z,100925.58
2018-12-10T16:27:24.368Z,100927.81
2018-12-10T16:29:51.971Z,100920.20
2018-12-10T16:32:19.467Z,100922.43
2018-12-10T16:34:47.132Z,100924.73
2018-12-10T16:37:14.806Z,100925.19
2018-12-10T16:39:43.899Z,100926.99
2018-12-10T16:42:11.599Z,100920.33
2018-12-10T16:44:39.070Z,100925.22
2018-12-10T16:47:06.611Z,100927.88
2018-12-10T16:49:34.060Z,100923.88
2018-12-10T16:52:01.646Z,100926.99
2018-12-10T16:54:29.191Z,100923.48
2018-12-10T16:56:56.699Z,100928.77
2018-12-10T16:59:24.215Z,100917.50
2018-12-10T17:01:51.673Z,100922.79
2018-12-10T17:04:19.143Z,100919.61
2018-12-10T17:06:46.847Z,100918.19
2018-12-10T17:09:14.573Z,100918.09
2018-12-10T17:11:42.260Z,100923.38
2018-12-10T17:14:09.838Z,100916.12
2018-12-10T17:16:37.671Z,100916.48
2018-12-10T17:19:05.392Z,100910.98
2018-12-10T17:21:32.921Z,100910.00
2018-12-10T17:24:00.510Z,100895.61
2018-12-10T17:26:27.958Z,100909.05
2018-12-10T17:28:55.419Z,100909.44
2018-12-10T17:31:23.928Z,100905.01
2018-12-10T17:33:51.620Z,100910.33
2018-12-10T17:36:19.215Z,100911.21
2018-12-10T17:38:46.687Z,100921.03
2018-12-10T17:41:14.137Z,100912.09
2018-12-10T17:43:41.584Z,100908.45
2018-12-10T17:46:09.026Z,100918.34
2018-12-10T17:48:36.477Z,100915.19
2018-12-10T17:51:03.935Z,100924.61
2018-12-10T17:53:31.583Z,100921.00
2018-12-10T17:55:59.298Z,100919.65
2018-12-10T17:58:26.743Z,100917.88
2018-12-10T18:00:54.187Z,100927.66
2018-12-10T18:03:21.648Z,100924.97
2018-12-10T18:05:49.205Z,100920.08
2018-12-10T18:08:16.664Z,100925.50
2018-12-10T18:10:44.140Z,100929.61
2018-12-10T18:13:11.575Z,100932.30
2018-12-10T18:15:39.070Z,100933.67
2018-12-10T18:18:06.536Z,100934.63
2018-12-10T18:20:34.019Z,100935.98
2018-12-10T18:23:01.457Z,100943.64
2018-12-10T18:25:28.985Z,100934.30
2018-12-10T18:27:56.847Z,100935.20
2018-12-10T18:30:24.299Z,100939.70
2018-12-10T18:32:51.746Z,100941.50
2018-12-10T18:35:19.212Z,100945.55
2018-12-10T18:37:46.649Z,100940.62
2018-12-10T18:40:14.372Z,100944.72
2018-12-10T18:42:41.880Z,100937.10
2018-12-10T18:45:11.051Z,100950.63
2018-12-10T18:47:38.667Z,100952.84
2018-12-10T18:50:06.118Z,100956.41
2018-12-10T18:52:33.628Z,100930.47
2018-12-10T18:55:01.103Z,100957.37
2018-12-10T18:57:29.676Z,100951.09
2018-12-10T18:59:57.151Z,100954.18
2018-12-10T19:02:24.588Z,100959.11
2018-12-10T19:04:52.147Z,100966.73
2018-12-10T19:07:19.733Z,100971.23
2018-12-10T19:09:47.169Z,100967.55
2018-12-10T19:12:14.823Z,100974.70
2018-12-10T19:14:42.297Z,100977.40
2018-12-10T19:18:30.168Z,100949.02
2018-12-10T19:20:57.742Z,100986.88
2018-12-10T19:23:25.624Z,100984.65
2018-12-10T19:25:53.556Z,100996.31
2018-12-10T19:28:22.823Z,100997.66
2018-12-10T19:30:50.700Z,100999.40
2018-12-10T19:33:18.664Z,101002.55
2018-12-10T19:35:46.956Z,100994.08
2018-12-10T19:38:14.644Z,101001.07
2018-12-10T19:40:42.349Z,101004.23
2018-12-10T19:43:10.473Z,101010.53
2018-12-10T19:45:38.193Z,101013.76
2018-12-10T19:48:05.695Z,101020.06
2018-12-10T19:50:33.135Z,101008.89
2018-12-10T19:53:00.672Z,101008.01
2018-12-10T19:55:28.119Z,101006.20
2018-12-10T19:57:55.591Z,101005.38
2018-12-10T20:00:23.103Z,101013.92
2018-12-10T20:02:50.744Z,101016.23
2018-12-10T20:05:18.462Z,101019.38
2018-12-10T20:07:46.529Z,101032.88
2018-12-10T20:10:13.963Z,101028.84
2018-12-10T20:12:41.414Z,101028.45
2018-12-10T20:15:09.084Z,101030.25
2018-12-10T20:17:36.574Z,101032.88
2018-12-10T20:20:04.816Z,101041.48
2018-12-10T20:22:32.796Z,101033.87
2018-12-10T20:25:00.511Z,101040.67
2018-12-10T20:27:44.025Z,101038.89
2018-12-10T20:30:12.204Z,101043.39
2018-12-10T20:32:40.062Z,101039.35
2018-12-10T20:35:07.678Z,101044.28
2018-12-10T20:37:35.138Z,101036.66
2018-12-10T20:40:02.656Z,101047.50
2018-12-10T20:42:30.274Z,101051.58
2018-12-10T20:44:57.757Z,101054.76
2018-12-10T20:47:25.426Z,101056.41
2018-12-10T20:49:53.333Z,101050.59
2018-12-10T20:52:21.796Z,101063.20
2018-12-10T20:54:54.714Z,101058.27
2018-12-10T20:57:23.098Z,101055.58
2018-12-10T20:59:51.588Z,101056.92
2018-12-10T21:02:19.226Z,101052.00
2018-12-10T21:04:46.911Z,101060.08
2018-12-10T21:07:14.407Z,101068.09
2018-12-10T21:09:41.885Z,101068.09
2018-12-10T21:12:09.560Z,101068.52
2018-12-10T21:14:37.014Z,101074.73
2018-12-10T21:17:07.791Z,101075.10
2018-12-10T21:19:36.376Z,101063.66
2018-12-10T21:22:04.747Z,101081.19
2018-12-10T21:24:32.444Z,101077.90
2018-12-10T21:27:00.345Z,101077.87
2018-12-10T21:29:28.264Z,101079.77
2018-12-10T21:31:56.790Z,101087.56
2018-12-10T21:34:27.786Z,101087.10
2018-12-10T21:37:03.491Z,101089.30
2018-12-10T21:39:31.129Z,101092.89
2018-12-10T21:41:58.607Z,101092.49
2018-12-10T21:44:29.558Z,101088.45
2018-12-10T21:46:57.510Z,101088.02
2018-12-10T21:49:25.237Z,101083.09
2018-12-10T21:51:53.115Z,101080.40
2018-12-10T21:54:20.599Z,101080.47
2018-12-10T21:56:48.056Z,101084.50
2018-12-10T21:59:15.582Z,101089.92
2018-12-10T22:01:43.193Z,101086.31
2018-12-10T22:04:10.947Z,101087.76
2018-12-10T22:06:38.630Z,101082.37
2018-12-10T22:09:08.429Z,101084.61
2018-12-10T22:11:36.156Z,101073.47
2018-12-10T22:14:03.965Z,101073.03
2018-12-10T22:16:31.968Z,101065.02
2018-12-10T22:18:59.624Z,101067.34
2018-12-10T22:21:27.267Z,101067.81
2018-12-10T22:23:54.769Z,101075.50
2018-12-10T22:26:22.218Z,101073.72
2018-12-10T22:28:49.661Z,101081.83
2018-12-10T22:31:17.267Z,101077.80
2018-12-10T22:33:44.836Z,101082.37
2018-12-10T22:36:17.107Z,101084.90
2018-12-10T22:38:51.897Z,101082.47
2018-12-10T22:41:19.728Z,101094.37
2018-12-10T22:43:47.368Z,101098.08
2018-12-10T22:46:15.415Z,101098.39
2018-12-10T22:48:43.430Z,101098.36
2018-12-10T22:51:11.203Z,101103.12
2018-12-10T22:53:39.007Z,101096.38
2018-12-10T22:56:07.068Z,101096.48
2018-12-10T22:58:34.620Z,101108.41
2018-12-10T23:03:47.862Z,101109.45
2018-12-10T23:06:15.355Z,101109.73
2018-12-10T23:08:42.828Z,101106.47
2018-12-10T23:11:10.619Z,101106.47
2018-12-10T23:13:38.199Z,101108.38
2018-12-10T23:16:05.988Z,101107.99
2018-12-10T23:18:33.481Z,101102.06
2018-12-10T23:21:02.297Z,101106.54
2018-12-10T23:23:29.797Z,101115.48
2018-12-10T23:25:57.259Z,101126.24
2018-12-10T23:28:24.854Z,101125.42
2018-12-10T23:30:52.343Z,101132.16
2018-12-10T23:33:19.793Z,101134.38
2018-12-10T23:35:47.271Z,101127.16
2018-12-10T23:38:14.742Z,101128.58
2018-12-10T23:40:42.222Z,101127.16
2018-12-10T23:43:26.572Z,101137.06
2018-12-10T23:45:54.106Z,101146.05
2018-12-10T23:48:22.256Z,101142.07
2018-12-10T23:50:49.756Z,101148.35
2018-12-10T23:53:17.201Z,101146.12
2018-12-10T23:55:44.747Z,101152.86
2018-12-10T23:58:12.227Z,101154.14
